Terminal Aerodrome Forecast
Issued by NWS Wilmington, NC

Home | Current Version | Previous Version | Text Only | Print | Product List | Glossary On
Versions: 1 2 3 4 5 6 7 8 9 10 11 12 13 14 15 16 17
358
FTUS42 KILM 280003 CCA
TAFLBT
TAF COR
KLBT 280003Z 2800/2824 25009KT P6SM SCT060 BKN120
     FM280300 24004KT P6SM VCTS FEW040CB BKN050 OVC100
     FM281300 26008KT P6SM SCT045 BKN090 OVC120
     FM282000 25011G17KT P6SM SCT070 BKN150 PROB30 2820/2824
      VRB20G30KT 3SM TSRA BKN040CB=

USA.gov is the U.S. government's official web portal to all federal, state and local government web resources and services.